Terminal Aerodrome Forecast
Issued by NWS

Home | Current Version | Previous Version | Text Only | Print | Product List | Glossary On
Versions: 1 2 3 4 5 6 7 8 9 10 11 12 13 14 15 16 17 18 19 20 21 22 23 24
000
FTUS43 KDLH 131700
TAFHYR
TAF
KHYR 131739Z 1318/1418 VRB04KT P6SM OVC012
     FM132000 35010G16KT P6SM OVC025
     FM140100 36006KT P6SM VCSH OVC015
     FM140900 35012KT P6SM OVC025
     FM141400 35010G17KT P6SM OVC050=

USA.gov is the U.S. government's official web portal to all federal, state and local government web resources and services.